KMKT/MKT METAR and TAF weather

Enter ICAO airport designator
Station Type Date Time Source
KMKT METAR 2020/09/22 06:56 UTC NOAA

KMKT 220656Z AUTO 18006KT 10SM CLR 17/14 A3012 RMK AO2 SLP197 T01670139


Station Type Date Time Source
KMKT Decoded METAR 2020/09/22 06:56 UTC NOAA

Mankato, Mankato Regional Airport, MN, United States (KMKT) 44-13N 093-55W
Sep 22, 2020 - 02:56 AM EDT / 2020.09.22 0656 UTC
Wind: from the S (180 degrees) at 7 MPH (6 KT):0
Visibility: 10 mile(s):0
Sky conditions: clear
Temperature: 62.1 F (16.7 C)
Dew Point: 57.0 F (13.9 C)
Relative Humidity: 83%
Pressure (altimeter): 30.12 in. Hg (1019 hPa)
ob: KMKT 220656Z AUTO 18006KT 10SM CLR 17/14 A3012 RMK AO2 SLP197 T01670139
cycle: 7

Station Type Date Time Source
KMKT TAF 2020/09/22 06:21 UTC NOAA

TAF KMKT 220520Z 2206/2306 16005KT P6SM SKC
FM221200 18005KT P6SM SKC

Example: see airport list